Skip Navigation Links Skip Navigation Links

Current Weather

Archangel'Sk, Archangel, Russia

For information only: do not use for flight planning or navigation.
Latest weather
Observation time Friday, November 22, 2019 1:00 AM MSK
Local time Friday, November 22, 2019 1:30 AM MSK
Flight conditions Instrument Meteorological Conditions
Winds
Wind direction West (270°)
Winds variable from 240° to 300°
Wind speed 7 mph
Visibility 6.2 mi.
Sky condition
Ceiling 600 ft. overcast
Cloud layer overcast 600 ft.
Temperature 36°F
Dewpoint 36°F
Altimeter 30.50 in.Hg
Precipitation
QB 4:00 AM
QF 1:53 PM
Derived measurements
Relative humidity 100%
Wind chill 30°F
Density altitude -2120 ft.
Remarks
No significant changes expected in the next two hours.
METAR ULAA 212200Z 27003MPS 240V300 9999 OVC006 02/02 Q1033 R26/610255 NOSIG RMK QBB180 QFE773/1031

Settings

Location code

InnerDrive.Weather 4.0.6770.0 Release CLR 4.0.30319.42000
Copyright ©2018 Inner Drive Technology. All rights reserved. Portions Copyright ©1986-2018 David Braverman.

Find weather

Site navigation


Skip Navigation Links

Place info

Page info

PayPal - The safer, easier way to pay online!

Return home.

Copyright ©2019 Inner Drive Technology. Purveyors of fine, hand-crafted computer software. Page printed 2019-11-21T22:30:32 UTC.